Pagina principale
METAR-TAF:

METAR-TAF

Aeroporti :

Kahramanmaraş, Turchia

latitudine: 37-32-20N, longitudine: 036-57-12E, altezza: 525 m

Osservazione

Il bollettino è stato emesso 1 ora e 7 minuti fa, alle 12:50 UTC
Vento 6 kt da direzioni variabili
Temperature 27°C
Umidità 34%
Pressione 1016 hPa
Visibilità 10 km o più
Poco nuvoloso ad un'altezza di 4000 ft

METAR: LTCN 261250Z VRB06KT 9999 FEW040 27/10 Q1016 NOSIG

Ora: 16:57 (13:57 UTC)

Previsione

Il bollettino è stato emesso 3 ore e 17 minuti fa, alle 10:40 UTC
Previsione valida dal 26 alle 12 UTC al 26 alle 21 UTC
Vento 2 kt da direzioni variabili
Visibilità 10 km o più
Poco nuvoloso ad un'altezza di 4000 ft

TAF: LTCN 261040Z 2612/2621 VRB02KT 9999 FEW040

Osservazioni e previsioni meteorologiche di più di 4000 aeroporti (messaggi METAR e TAF).

Le stazioni disponibili sono rappresentate dai dischi gialli e rossi sulla carta.

Puntare il mouse per vedere il nome della stazione.

Clicca sopra per visualizzare le osservazioni e previsioni meteorologiche.

Per cambiare la mappa : fare clic sui pulsanti verdi con una croce nera per ingrandire, il pulsante verde con un trattino per diminuire, o sulla freccia verde per le mappe adiacenti.


METAR-TAF: